createdAt,value
2022-12-29T00:00:12.420Z,1.90
2022-12-29T00:02:42.659Z,1.42
2022-12-29T00:05:09.916Z,1.40
2022-12-29T00:07:37.283Z,1.23
2022-12-29T00:10:05.270Z,1.42
2022-12-29T00:12:52.649Z,1.67
2022-12-29T00:15:38.223Z,1.38
2022-12-29T00:18:05.687Z,1.63
2022-12-29T00:20:54.184Z,1.23
2022-12-29T00:24:00.363Z,1.40
2022-12-29T00:26:45.841Z,1.40
2022-12-29T00:29:31.215Z,1.13
2022-12-29T00:32:16.484Z,1.40
2022-12-29T00:35:03.673Z,1.27
2022-12-29T00:37:49.477Z,1.70
2022-12-29T00:40:34.636Z,1.40
2022-12-29T00:43:20.517Z,1.23
2022-12-29T00:45:47.386Z,1.20
2022-12-29T00:48:14.716Z,1.45
2022-12-29T00:50:42.037Z,1.50
2022-12-29T00:55:41.340Z,1.10
2022-12-29T00:58:08.852Z,1.23
2022-12-29T01:00:36.205Z,0.93
2022-12-29T01:03:03.676Z,1.70
2022-12-29T01:05:31.190Z,1.70
2022-12-29T01:07:58.448Z,1.50
2022-12-29T01:10:25.708Z,1.30
2022-12-29T01:12:56.491Z,1.70
2022-12-29T01:15:23.792Z,1.60
2022-12-29T01:17:51.085Z,1.30
2022-12-29T01:20:18.285Z,1.48
2022-12-29T01:22:45.870Z,1.35
2022-12-29T01:25:12.811Z,1.23
2022-12-29T01:27:40.086Z,1.65
2022-12-29T01:30:07.563Z,1.70
2022-12-29T01:32:35.117Z,1.75
2022-12-29T01:35:02.488Z,2.17
2022-12-29T01:37:29.726Z,1.75
2022-12-29T01:39:57.600Z,1.60
2022-12-29T01:42:27.303Z,1.50
2022-12-29T01:45:04.035Z,1.40
2022-12-29T01:47:43.744Z,1.27
2022-12-29T01:50:33.306Z,1.38
2022-12-29T01:53:00.765Z,1.30
2022-12-29T01:55:32.402Z,1.73
2022-12-29T01:58:04.187Z,1.70
2022-12-29T02:00:31.759Z,1.73
2022-12-29T02:02:58.831Z,1.42
2022-12-29T02:05:34.850Z,1.30
2022-12-29T02:08:02.935Z,1.02
2022-12-29T02:10:32.888Z,1.10
2022-12-29T02:13:01.103Z,1.23
2022-12-29T02:15:58.394Z,1.70
2022-12-29T02:18:58.699Z,1.17
2022-12-29T02:21:54.582Z,0.90
2022-12-29T02:24:50.347Z,1.20
2022-12-29T02:27:47.972Z,1.02
2022-12-29T02:30:39.829Z,1.17
2022-12-29T02:33:14.881Z,1.40
2022-12-29T02:35:42.531Z,1.38
2022-12-29T02:38:22.832Z,1.50
2022-12-29T02:41:07.024Z,1.40
2022-12-29T02:43:45.621Z,1.70
2022-12-29T02:46:19.231Z,1.00
2022-12-29T02:49:20.841Z,1.27
2022-12-29T02:51:48.160Z,1.23
2022-12-29T02:54:38.122Z,1.02
2022-12-29T02:57:26.935Z,1.13
2022-12-29T02:59:59.512Z,0.95
2022-12-29T03:02:26.952Z,1.00
2022-12-29T03:05:06.037Z,1.30
2022-12-29T03:08:07.020Z,1.30
2022-12-29T03:10:40.161Z,1.13
2022-12-29T03:13:42.390Z,1.30
2022-12-29T03:16:28.442Z,1.10
2022-12-29T03:19:26.228Z,1.00
2022-12-29T03:22:15.227Z,1.08
2022-12-29T03:24:53.481Z,0.90
2022-12-29T03:27:26.551Z,0.90
2022-12-29T03:29:58.060Z,1.27
2022-12-29T03:32:29.348Z,1.10
2022-12-29T03:34:58.201Z,1.02
2022-12-29T03:37:30.721Z,1.40
2022-12-29T03:39:59.407Z,1.50
2022-12-29T03:42:31.607Z,1.10
2022-12-29T03:44:59.120Z,1.05
2022-12-29T03:47:27.081Z,0.73
2022-12-29T03:49:54.958Z,1.20
2022-12-29T03:52:22.569Z,1.00
2022-12-29T03:54:51.807Z,0.88
2022-12-29T03:57:19.267Z,1.25
2022-12-29T04:00:00.878Z,1.00
2022-12-29T04:04:58.263Z,0.80
2022-12-29T04:07:25.156Z,0.90
2022-12-29T04:09:54.226Z,0.77
2022-12-29T04:14:51.701Z,1.00
2022-12-29T04:17:20.178Z,0.80
2022-12-29T04:19:50.390Z,0.70
2022-12-29T04:22:17.975Z,0.80
2022-12-29T04:24:46.199Z,0.98
2022-12-29T04:27:13.629Z,0.88
2022-12-29T04:30:02.809Z,0.90
2022-12-29T04:32:42.877Z,0.68
2022-12-29T04:35:10.251Z,1.02
2022-12-29T04:37:37.542Z,0.88
2022-12-29T04:40:04.846Z,0.70
2022-12-29T04:42:32.197Z,0.77
2022-12-29T04:45:00.599Z,1.00
2022-12-29T04:47:57.049Z,0.68
2022-12-29T04:50:38.518Z,0.90
2022-12-29T04:53:15.357Z,0.75
2022-12-29T04:55:43.768Z,0.70
2022-12-29T04:58:11.149Z,1.00
2022-12-29T05:00:38.807Z,0.95
2022-12-29T05:03:06.611Z,0.80
2022-12-29T05:05:33.727Z,0.70
2022-12-29T05:08:02.230Z,0.77
2022-12-29T05:10:29.450Z,0.90
2022-12-29T05:13:02.121Z,0.73
2022-12-29T05:15:29.908Z,0.88
2022-12-29T05:17:57.884Z,0.63
2022-12-29T05:20:25.471Z,0.70
2022-12-29T05:22:52.970Z,0.80
2022-12-29T05:25:20.408Z,0.68
2022-12-29T05:27:58.291Z,0.57
2022-12-29T05:30:44.613Z,0.95
2022-12-29T05:33:12.869Z,0.40
2022-12-29T05:35:46.481Z,0.55
2022-12-29T05:38:15.168Z,1.00
2022-12-29T05:40:45.433Z,1.00
2022-12-29T05:43:25.037Z,0.60
2022-12-29T05:46:13.151Z,0.50
2022-12-29T05:48:56.695Z,0.85
2022-12-29T05:51:35.863Z,0.60
2022-12-29T05:54:03.403Z,0.63
2022-12-29T05:56:30.878Z,0.70
2022-12-29T05:58:59.755Z,0.70
2022-12-29T06:01:27.239Z,0.93
2022-12-29T06:03:55.537Z,0.60
2022-12-29T06:06:22.876Z,0.73
2022-12-29T06:08:50.350Z,1.65
2022-12-29T06:11:18.279Z,0.85
2022-12-29T06:13:51.550Z,0.50
2022-12-29T06:16:18.939Z,0.70
2022-12-29T06:18:46.345Z,0.70
2022-12-29T06:21:13.935Z,0.60
2022-12-29T06:23:41.664Z,0.95
2022-12-29T06:26:09.059Z,1.10
2022-12-29T06:28:36.461Z,1.10
2022-12-29T06:31:04.072Z,0.70
2022-12-29T06:33:31.875Z,0.80
2022-12-29T06:35:59.160Z,0.50
2022-12-29T06:38:26.575Z,0.70
2022-12-29T06:40:54.216Z,0.70
2022-12-29T06:43:41.735Z,0.77
2022-12-29T06:46:16.375Z,0.88
2022-12-29T06:48:44.488Z,0.70
2022-12-29T06:51:11.714Z,0.93
2022-12-29T06:53:39.064Z,0.70
2022-12-29T06:56:06.564Z,0.90
2022-12-29T06:58:33.937Z,1.40
2022-12-29T07:01:01.228Z,0.85
2022-12-29T07:03:28.713Z,0.85
2022-12-29T07:05:56.009Z,0.98
2022-12-29T07:08:23.275Z,0.95
2022-12-29T07:10:50.690Z,0.80
2022-12-29T07:13:18.106Z,1.17
2022-12-29T07:15:45.366Z,0.95
2022-12-29T07:18:12.664Z,0.90
2022-12-29T07:20:39.961Z,1.20
2022-12-29T07:23:07.253Z,0.90
2022-12-29T07:25:36.107Z,0.85
2022-12-29T07:28:04.230Z,0.70
2022-12-29T07:30:31.596Z,0.80
2022-12-29T07:32:58.946Z,0.98
2022-12-29T07:35:26.381Z,1.30
2022-12-29T07:37:53.724Z,1.33
2022-12-29T07:40:21.015Z,1.00
2022-12-29T07:42:48.301Z,1.33
2022-12-29T07:45:17.651Z,0.93
2022-12-29T07:48:03.742Z,0.98
2022-12-29T07:50:31.125Z,1.05
2022-12-29T07:52:58.426Z,1.02
2022-12-29T07:55:25.845Z,1.05
2022-12-29T07:57:57.466Z,0.93
2022-12-29T08:00:24.761Z,1.10
2022-12-29T08:02:52.649Z,1.10
2022-12-29T08:05:20.089Z,1.00
2022-12-29T08:07:48.031Z,1.60
2022-12-29T08:10:18.087Z,1.42
2022-12-29T08:12:45.649Z,1.10
2022-12-29T08:15:13.220Z,1.20
2022-12-29T08:17:40.718Z,1.13
2022-12-29T08:20:08.344Z,1.25
2022-12-29T08:22:35.976Z,1.10
2022-12-29T08:25:03.264Z,0.88
2022-12-29T08:27:30.547Z,0.90
2022-12-29T08:29:57.810Z,0.93
2022-12-29T08:32:25.174Z,1.10
2022-12-29T08:34:52.556Z,1.23
2022-12-29T08:37:19.808Z,0.90
2022-12-29T08:39:47.077Z,1.00
2022-12-29T08:42:14.347Z,1.08
2022-12-29T08:44:41.712Z,1.35
2022-12-29T08:47:09.103Z,1.00
2022-12-29T08:49:36.368Z,1.20
2022-12-29T08:52:03.757Z,1.10
2022-12-29T08:54:31.061Z,1.42
2022-12-29T08:56:58.448Z,0.95
2022-12-29T08:59:34.240Z,1.00
2022-12-29T09:02:02.791Z,1.02
2022-12-29T09:04:30.444Z,1.10
2022-12-29T09:06:57.829Z,1.05
2022-12-29T09:09:25.095Z,1.77
2022-12-29T09:11:52.340Z,1.15
2022-12-29T09:14:20.251Z,1.15
2022-12-29T09:17:06.142Z,0.93
2022-12-29T09:19:33.485Z,0.70
2022-12-29T09:22:04.097Z,0.85
2022-12-29T09:24:32.035Z,0.82
2022-12-29T09:29:28.572Z,0.43
2022-12-29T09:31:55.929Z,1.25
2022-12-29T09:34:23.369Z,0.73
2022-12-29T09:36:51.379Z,0.40
2022-12-29T09:39:18.702Z,0.68
2022-12-29T09:42:04.393Z,0.60
2022-12-29T09:44:31.660Z,0.60
2022-12-29T09:47:01.567Z,0.50
2022-12-29T09:49:34.547Z,0.45
2022-12-29T09:52:06.219Z,0.50
2022-12-29T09:54:58.112Z,0.30
2022-12-29T09:57:55.381Z,0.40
2022-12-29T10:00:28.606Z,0.30
2022-12-29T10:03:21.196Z,0.50
2022-12-29T10:05:48.514Z,0.50
2022-12-29T10:08:33.998Z,0.43
2022-12-29T10:11:20.741Z,0.77
2022-12-29T10:14:16.741Z,0.73
2022-12-29T10:17:04.566Z,0.60
2022-12-29T10:19:56.560Z,0.80
2022-12-29T10:22:23.838Z,0.95
2022-12-29T10:24:53.795Z,1.20
2022-12-29T10:27:21.305Z,0.77
2022-12-29T10:29:58.989Z,0.85
2022-12-29T10:32:41.177Z,0.65
2022-12-29T10:35:20.953Z,0.95
2022-12-29T10:38:02.722Z,0.60
2022-12-29T10:41:01.663Z,0.60
2022-12-29T10:43:31.473Z,0.50
2022-12-29T10:46:10.572Z,0.90
2022-12-29T10:48:38.895Z,0.60
2022-12-29T10:51:12.454Z,0.90
2022-12-29T10:54:06.840Z,0.90
2022-12-29T10:56:58.533Z,0.70
2022-12-29T10:59:36.741Z,0.73
2022-12-29T11:02:08.165Z,0.50
2022-12-29T11:05:30.685Z,1.25
2022-12-29T11:08:15.415Z,1.08
2022-12-29T11:10:45.458Z,0.70
2022-12-29T11:13:25.315Z,0.90
2022-12-29T11:15:53.116Z,0.75
2022-12-29T11:18:38.311Z,1.70
2022-12-29T11:21:11.249Z,1.00
2022-12-29T11:23:41.103Z,1.08
2022-12-29T11:26:33.782Z,0.75
2022-12-29T11:29:17.893Z,0.80
2022-12-29T11:31:47.931Z,0.50
2022-12-29T11:34:20.593Z,1.08
2022-12-29T11:36:50.327Z,0.70
2022-12-29T11:39:49.630Z,0.73
2022-12-29T11:42:30.329Z,0.80
2022-12-29T11:44:57.632Z,0.70
2022-12-29T11:47:29.884Z,0.70
2022-12-29T11:50:01.180Z,0.90
2022-12-29T11:52:36.046Z,0.80
2022-12-29T11:55:06.425Z,0.98
2022-12-29T12:00:15.281Z,1.10
2022-12-29T12:02:43.901Z,1.45
2022-12-29T12:05:28.203Z,0.57
2022-12-29T12:08:18.955Z,0.75
2022-12-29T12:11:10.683Z,0.85
2022-12-29T12:13:43.987Z,1.13
2022-12-29T12:16:22.154Z,0.73
2022-12-29T12:18:57.918Z,0.90
2022-12-29T12:21:31.119Z,1.02
2022-12-29T12:23:58.348Z,0.75
2022-12-29T12:26:38.032Z,0.45
2022-12-29T12:29:26.531Z,0.90
2022-12-29T12:32:02.700Z,0.55
2022-12-29T12:34:42.669Z,0.82
2022-12-29T12:37:35.555Z,0.52
2022-12-29T12:40:24.174Z,0.75
2022-12-29T12:42:51.431Z,0.65
2022-12-29T12:45:24.768Z,1.00
2022-12-29T12:47:54.996Z,0.85
2022-12-29T12:50:53.097Z,0.75
2022-12-29T12:53:42.018Z,0.70
2022-12-29T12:56:32.075Z,1.48
2022-12-29T12:59:33.669Z,0.98
2022-12-29T13:02:26.048Z,0.68
2022-12-29T13:05:21.287Z,0.90
2022-12-29T13:08:11.455Z,0.80
2022-12-29T13:10:52.992Z,0.85
2022-12-29T13:13:51.012Z,0.77
2022-12-29T13:16:33.962Z,0.77
2022-12-29T13:19:07.528Z,0.82
2022-12-29T13:21:41.204Z,1.02
2022-12-29T13:24:33.302Z,1.00
2022-12-29T13:27:17.211Z,1.02
2022-12-29T13:29:54.626Z,0.90
2022-12-29T13:33:04.075Z,0.73
2022-12-29T13:35:54.938Z,0.60
2022-12-29T13:38:46.921Z,0.60
2022-12-29T13:41:45.416Z,0.90
2022-12-29T13:44:33.204Z,0.63
2022-12-29T13:47:22.369Z,0.60
2022-12-29T13:49:51.081Z,0.90
2022-12-29T13:52:40.643Z,0.70
2022-12-29T13:55:08.150Z,0.70
2022-12-29T13:57:46.911Z,0.75
2022-12-29T14:00:21.140Z,0.88
2022-12-29T14:03:05.287Z,0.70
2022-12-29T14:05:33.604Z,0.60
2022-12-29T14:08:04.001Z,0.90
2022-12-29T14:15:34.552Z,0.65
2022-12-29T14:18:19.081Z,1.17
2022-12-29T14:21:08.729Z,0.80
2022-12-29T14:23:35.978Z,0.82
2022-12-29T14:26:06.244Z,1.08
2022-12-29T14:28:52.715Z,0.77
2022-12-29T14:31:20.182Z,0.80
2022-12-29T14:34:11.942Z,0.80
2022-12-29T14:36:54.611Z,0.80
2022-12-29T14:39:31.085Z,0.80
2022-12-29T14:42:10.882Z,1.40
2022-12-29T14:44:54.657Z,1.30
2022-12-29T14:47:21.945Z,0.82
2022-12-29T14:49:49.427Z,0.90
2022-12-29T14:52:26.459Z,1.20
2022-12-29T14:55:20.492Z,1.00
2022-12-29T14:58:10.267Z,0.95
2022-12-29T15:00:41.143Z,0.82
2022-12-29T15:03:18.840Z,1.08
2022-12-29T15:05:49.738Z,0.90
2022-12-29T15:08:24.133Z,1.13
2022-12-29T15:10:55.411Z,1.15
2022-12-29T15:13:35.338Z,0.90
2022-12-29T15:16:02.941Z,0.88
2022-12-29T15:18:32.194Z,0.90
2022-12-29T15:21:04.786Z,0.90
2022-12-29T15:23:37.820Z,0.98
2022-12-29T15:26:09.623Z,0.80
2022-12-29T15:28:42.029Z,0.93
2022-12-29T15:31:16.204Z,0.73
2022-12-29T15:33:48.372Z,1.58
2022-12-29T15:36:21.854Z,0.90
2022-12-29T15:38:49.823Z,1.30
2022-12-29T15:41:33.634Z,1.00
2022-12-29T15:44:00.917Z,1.10
2022-12-29T15:46:31.199Z,1.35
2022-12-29T15:51:31.877Z,1.00
2022-12-29T15:53:59.562Z,1.00
2022-12-29T15:56:30.403Z,1.67
2022-12-29T15:58:57.749Z,1.08
2022-12-29T16:01:37.973Z,1.08
2022-12-29T16:04:08.567Z,1.55
2022-12-29T16:06:40.487Z,0.93
2022-12-29T16:09:15.903Z,1.25
2022-12-29T16:11:48.407Z,0.93
2022-12-29T16:14:22.837Z,1.17
2022-12-29T16:16:51.056Z,1.60
2022-12-29T16:19:29.907Z,1.38
2022-12-29T16:21:59.466Z,1.45
2022-12-29T16:24:30.091Z,1.10
2022-12-29T16:27:08.255Z,1.38
2022-12-29T16:29:36.362Z,1.65
2022-12-29T16:32:04.239Z,0.70
2022-12-29T16:34:31.751Z,2.10
2022-12-29T16:37:25.381Z,1.38
2022-12-29T16:39:52.812Z,0.90
2022-12-29T16:42:37.571Z,1.00
2022-12-29T16:45:59.545Z,1.48
2022-12-29T16:48:29.898Z,1.00
2022-12-29T16:53:33.241Z,1.05
2022-12-29T16:56:06.783Z,1.65
2022-12-29T16:58:36.187Z,1.55
2022-12-29T17:01:07.435Z,1.23
2022-12-29T17:03:40.181Z,1.00
2022-12-29T17:06:07.763Z,1.17
2022-12-29T17:08:42.301Z,1.05
2022-12-29T17:11:40.966Z,1.25
2022-12-29T17:14:21.677Z,1.30
2022-12-29T17:16:49.896Z,1.30
2022-12-29T17:19:24.108Z,1.30
2022-12-29T17:21:51.622Z,1.58
2022-12-29T17:24:19.925Z,1.05
2022-12-29T17:26:50.994Z,1.00
2022-12-29T17:29:38.072Z,1.30
2022-12-29T17:32:06.728Z,1.35
2022-12-29T17:34:34.485Z,1.13
2022-12-29T17:37:01.828Z,1.05
2022-12-29T17:39:29.164Z,1.35
2022-12-29T17:41:56.602Z,1.20
2022-12-29T17:44:29.154Z,1.17
2022-12-29T17:46:56.509Z,0.60
2022-12-29T17:49:23.721Z,1.00
2022-12-29T17:51:50.992Z,1.10
2022-12-29T17:54:24.952Z,0.93
2022-12-29T17:56:52.567Z,1.05
2022-12-29T17:59:20.424Z,1.08
2022-12-29T18:01:49.435Z,0.65
2022-12-29T18:04:18.942Z,1.50
2022-12-29T18:06:46.798Z,1.23
2022-12-29T18:09:14.940Z,1.13
2022-12-29T18:11:43.805Z,0.85
2022-12-29T18:14:17.779Z,0.88
2022-12-29T18:16:45.233Z,1.13
2022-12-29T18:19:12.612Z,1.17
2022-12-29T18:21:40.840Z,1.05
2022-12-29T18:24:15.036Z,1.50
2022-12-29T18:26:42.873Z,1.35
2022-12-29T18:29:10.156Z,1.30
2022-12-29T18:31:38.161Z,1.45
2022-12-29T18:34:14.313Z,1.15
2022-12-29T18:36:41.677Z,1.20
2022-12-29T18:39:08.959Z,1.30
2022-12-29T18:41:36.530Z,1.20
2022-12-29T18:44:04.058Z,1.15
2022-12-29T18:46:31.472Z,1.65
2022-12-29T18:48:58.779Z,1.67
2022-12-29T18:51:26.430Z,1.10
2022-12-29T18:53:56.761Z,1.30
2022-12-29T18:58:51.902Z,1.23
2022-12-29T19:01:22.323Z,1.60
2022-12-29T19:03:50.067Z,1.35
2022-12-29T19:06:17.503Z,1.35
2022-12-29T19:08:46.080Z,1.38
2022-12-29T19:11:13.571Z,1.20
2022-12-29T19:13:40.979Z,1.45
2022-12-29T19:16:17.309Z,1.92
2022-12-29T19:18:50.904Z,1.73
2022-12-29T19:21:26.329Z,1.33
2022-12-29T19:23:53.885Z,1.80
2022-12-29T19:26:31.883Z,1.52
2022-12-29T19:29:00.162Z,0.95
2022-12-29T19:31:27.490Z,1.35
2022-12-29T19:33:54.813Z,1.33
2022-12-29T19:36:22.420Z,1.33
2022-12-29T19:38:49.821Z,1.40
2022-12-29T19:41:17.190Z,1.20
2022-12-29T19:43:44.531Z,1.27
2022-12-29T19:46:15.673Z,1.20
2022-12-29T19:48:43.012Z,1.20
2022-12-29T19:51:13.468Z,1.73
2022-12-29T19:53:40.783Z,1.63
2022-12-29T19:56:09.027Z,1.35
2022-12-29T19:58:42.627Z,1.15
2022-12-29T20:01:17.623Z,1.73
2022-12-29T20:03:45.228Z,1.60
2022-12-29T20:06:12.892Z,1.45
2022-12-29T20:08:40.607Z,2.17
2022-12-29T20:11:15.087Z,1.38
2022-12-29T20:13:42.872Z,1.60
2022-12-29T20:16:15.817Z,1.50
2022-12-29T20:18:43.416Z,1.40
2022-12-29T20:21:28.846Z,2.17
2022-12-29T20:23:56.446Z,1.50
2022-12-29T20:26:27.114Z,1.02
2022-12-29T20:28:54.813Z,1.40
2022-12-29T20:31:28.356Z,1.42
2022-12-29T20:33:55.747Z,1.50
2022-12-29T20:36:28.501Z,1.85
2022-12-29T20:38:57.941Z,1.92
2022-12-29T20:41:25.350Z,1.52
2022-12-29T20:43:55.645Z,1.55
2022-12-29T20:49:00.264Z,1.58
2022-12-29T20:51:27.820Z,1.27
2022-12-29T20:53:55.126Z,1.30
2022-12-29T20:56:24.621Z,1.83
2022-12-29T20:59:25.824Z,1.77
2022-12-29T21:01:39.467Z,1.55
2022-12-29T21:04:07.253Z,1.80
2022-12-29T21:06:34.959Z,2.35
2022-12-29T21:09:02.317Z,1.48
2022-12-29T21:11:29.643Z,1.70
2022-12-29T21:14:00.907Z,1.80
2022-12-29T21:16:28.867Z,2.50
2022-12-29T21:18:56.473Z,1.80
2022-12-29T21:21:25.531Z,1.60
2022-12-29T21:23:53.031Z,2.42
2022-12-29T21:26:22.791Z,1.77
2022-12-29T21:28:50.409Z,1.85
2022-12-29T21:31:33.554Z,1.80
2022-12-29T21:34:01.069Z,1.90
2022-12-29T21:36:30.614Z,1.98
2022-12-29T21:38:58.666Z,1.58
2022-12-29T21:41:26.550Z,2.30
2022-12-29T21:44:12.399Z,2.85
2022-12-29T21:46:41.115Z,1.85
2022-12-29T21:49:08.761Z,1.90
2022-12-29T21:51:51.189Z,2.00
2022-12-29T21:54:42.322Z,1.83
2022-12-29T21:57:10.510Z,1.85
2022-12-29T21:59:56.392Z,1.77
2022-12-29T22:02:44.864Z,1.90
2022-12-29T22:05:34.830Z,1.85
2022-12-29T22:08:21.684Z,2.90
2022-12-29T22:11:07.479Z,1.58
2022-12-29T22:13:39.346Z,2.65
2022-12-29T22:16:08.079Z,1.95
2022-12-29T22:18:35.716Z,2.15
2022-12-29T22:21:10.489Z,1.83
2022-12-29T22:23:38.171Z,1.50
2022-12-29T22:26:07.027Z,2.47
2022-12-29T22:28:42.285Z,2.33
2022-12-29T22:31:38.483Z,2.15
2022-12-29T22:34:05.780Z,2.22
2022-12-29T22:36:33.483Z,1.40
2022-12-29T22:39:00.786Z,2.38
2022-12-29T22:41:28.078Z,2.15
2022-12-29T22:43:55.715Z,1.90
2022-12-29T22:46:23.167Z,1.30
2022-12-29T22:48:50.486Z,1.58
2022-12-29T22:51:17.797Z,2.17
2022-12-29T22:53:45.579Z,1.90
2022-12-29T22:56:13.930Z,2.25
2022-12-29T22:58:46.636Z,2.08
2022-12-29T23:01:16.481Z,2.10
2022-12-29T23:03:43.999Z,2.38
2022-12-29T23:06:16.359Z,1.67
2022-12-29T23:08:44.274Z,2.08
2022-12-29T23:11:12.881Z,2.05
2022-12-29T23:13:41.135Z,1.80
2022-12-29T23:16:09.752Z,2.95
2022-12-29T23:18:37.227Z,3.05
2022-12-29T23:21:04.864Z,2.40
2022-12-29T23:23:50.788Z,1.50
2022-12-29T23:26:18.637Z,1.90
2022-12-29T23:28:46.166Z,1.75
2022-12-29T23:31:13.793Z,1.42
2022-12-29T23:33:41.239Z,1.85
2022-12-29T23:36:08.947Z,2.20
2022-12-29T23:38:36.343Z,1.90
2022-12-29T23:41:03.607Z,1.67
2022-12-29T23:43:30.906Z,1.73
2022-12-29T23:45:58.197Z,2.15
2022-12-29T23:48:25.527Z,1.58
2022-12-29T23:50:52.797Z,2.33
2022-12-29T23:53:20.063Z,2.10
2022-12-29T23:55:53.534Z,2.00
2022-12-29T23:58:20.869Z,2.05
